Franconia, NH (03580)

9:58 PM EDT on September 04, 2015 (GMT -0400)
Sugar Hill | | Change Station
CLOSE
Current Station
Personal Weather Station
Location: Sugar Hill, NH
Elevation: 900 ft
Nearby Weather Stations

Elev 900 ft 44.22 °N, 71.80 °W | Updated 43 seconds ago

Clear
Clear
58.3 °F
Feels Like 58.3 °F
N
1.7
Wind Variable Wind from ESE

Today
High -- | Low -- °F
--% Chance of Precip.
Yesterday
High -- | Low -- °F
Precip. -- in
6:13 AM 7:18 PM
Waning Gibbous, 54% visible
Pressure 30.26 in
Visibility 10.0 miles
Clouds Clear
Dew Point 56 °F
Humidity 91%
Rainfall 0.00 in
Snow Depth Not available.
UV 0 out of 12
Pollen 7.90 out of 12
Air Quality Not available.
Flu Activity Not available.
METAR KHIE 050152Z AUTO 06003KT 10SM CLR 14/12 A3026 RMK AO2 SLP246 T01390122 TSNO
Pressure 30.26 in
Visibility 10.0 miles
Clouds Clear
Dew Point 56 °F
Humidity 91%
Rainfall 0.00 in
Snow Depth Not available.
UV 0 out of 12
Pollen 7.90 out of 12
Air Quality Not available.
Flu Activity Not available.
METAR KHIE 050152Z AUTO 06003KT 10SM CLR 14/12 A3026 RMK AO2 SLP246 T01390122 TSNO

10-Day Weather Forecast

×

Almanac

Astronomy

Sep. 04, 2015 Rise Set
Actual Time
Civil Twilight
Nautical Twilight
Astronomical Twilight
Moon
Length of Visible Light
Length of Day
Tomorrow will be .
, % of the Moon is Illuminated

Today's Extremes

State Highs State Lows

Community

WunderPhotos

Upload Photos

1,852,375 photos uploaded!

WunderBlogs® & News

Nearby

Air Quality

  Air Quality AQ Index Pollutant
Not available.

Snow Depth

Station Depth Elevation

Earthquake Activity

City Distance Mag. Time & Date
Minimum magnitude displayed is 2.5.

Coastal Water Temperatures

Place Temperature

Stations

Nearby Weather Stations

Station Location Temp. Windchill Dew Point Humidity Wind Precip. Elev Updated Type